createdAt,value
2023-04-03T00:01:28.488Z,2.40
2023-04-03T00:03:57.922Z,2.43
2023-04-03T00:06:26.019Z,2.27
2023-04-03T00:08:53.902Z,1.97
2023-04-03T00:11:21.686Z,1.70
2023-04-03T00:13:50.806Z,2.00
2023-04-03T00:16:20.126Z,2.53
2023-04-03T00:18:50.177Z,2.87
2023-04-03T00:21:19.400Z,2.73
2023-04-03T00:23:46.437Z,3.00
2023-04-03T00:26:13.710Z,2.80
2023-04-03T00:28:43.822Z,2.20
2023-04-03T00:31:14.586Z,2.47
2023-04-03T00:33:44.223Z,2.10
2023-04-03T00:36:14.156Z,2.20
2023-04-03T00:38:43.519Z,2.00
2023-04-03T00:41:10.666Z,2.57
2023-04-03T00:43:37.679Z,2.37
2023-04-03T00:46:05.562Z,2.50
2023-04-03T00:48:49.999Z,3.03
2023-04-03T00:51:25.371Z,2.40
2023-04-03T00:54:00.069Z,1.83
2023-04-03T00:56:31.416Z,2.43
2023-04-03T00:59:19.216Z,2.20
2023-04-03T01:01:46.361Z,2.00
2023-04-03T01:04:38.171Z,2.37
2023-04-03T01:07:18.499Z,2.43
2023-04-03T01:09:48.385Z,1.90
2023-04-03T01:12:30.338Z,2.20
2023-04-03T01:15:22.306Z,3.63
2023-04-03T01:17:52.509Z,2.17
2023-04-03T01:20:36.798Z,2.63
2023-04-03T01:23:12.912Z,2.20
2023-04-03T01:25:53.173Z,2.53
2023-04-03T01:28:34.099Z,2.30
2023-04-03T01:31:18.765Z,3.00
2023-04-03T01:33:46.066Z,2.33
2023-04-03T01:36:22.941Z,2.13
2023-04-03T01:38:52.901Z,2.60
2023-04-03T01:41:22.026Z,1.93
2023-04-03T01:43:54.320Z,2.30
2023-04-03T01:46:24.312Z,2.60
2023-04-03T01:48:51.431Z,2.80
2023-04-03T01:51:20.911Z,2.57
2023-04-03T01:53:47.950Z,2.77
2023-04-03T01:56:17.584Z,2.20
2023-04-03T01:58:44.544Z,2.20
2023-04-03T02:01:11.587Z,2.90
2023-04-03T02:03:38.742Z,2.90
2023-04-03T02:06:06.650Z,2.63
2023-04-03T02:08:38.279Z,2.80
2023-04-03T02:11:05.313Z,2.60
2023-04-03T02:13:32.367Z,2.57
2023-04-03T02:16:00.144Z,2.50
2023-04-03T02:18:27.181Z,3.00
2023-04-03T02:20:54.132Z,2.70
2023-04-03T02:23:23.361Z,2.70
2023-04-03T02:25:50.380Z,3.00
2023-04-03T02:28:20.546Z,3.00
2023-04-03T02:30:50.189Z,2.27
2023-04-03T02:33:17.297Z,2.60
2023-04-03T02:35:44.218Z,3.00
2023-04-03T02:38:13.835Z,2.90
2023-04-03T02:40:41.050Z,3.53
2023-04-03T02:43:08.134Z,3.03
2023-04-03T02:45:35.188Z,3.27
2023-04-03T02:48:02.419Z,3.00
2023-04-03T02:50:29.493Z,3.10
2023-04-03T02:53:01.001Z,3.57
2023-04-03T02:55:30.324Z,2.70
2023-04-03T02:57:57.261Z,4.20
2023-04-03T03:00:24.294Z,3.00
2023-04-03T03:02:51.311Z,2.97
2023-04-03T03:05:18.655Z,3.03
2023-04-03T03:07:45.900Z,3.20
2023-04-03T03:10:15.879Z,2.40
2023-04-03T03:12:45.205Z,3.00
2023-04-03T03:15:12.788Z,2.70
2023-04-03T03:17:39.918Z,4.23
2023-04-03T03:20:08.515Z,2.93
2023-04-03T03:22:36.118Z,2.30
2023-04-03T03:25:04.404Z,2.70
2023-04-03T03:27:31.876Z,3.20
2023-04-03T03:30:02.587Z,2.60
2023-04-03T03:32:29.571Z,2.77
2023-04-03T03:34:59.014Z,2.63
2023-04-03T03:37:25.899Z,3.17
2023-04-03T03:39:52.929Z,2.83
2023-04-03T03:42:20.082Z,3.03
2023-04-03T03:44:49.412Z,3.30
2023-04-03T03:47:18.640Z,2.40
2023-04-03T03:49:45.761Z,3.10
2023-04-03T03:52:15.150Z,3.33
2023-04-03T03:54:45.510Z,2.90
2023-04-03T03:57:12.913Z,2.97
2023-04-03T03:59:41.990Z,2.93
2023-04-03T04:02:11.777Z,3.10
2023-04-03T04:04:38.807Z,3.00
2023-04-03T04:07:06.174Z,3.80
2023-04-03T04:09:37.842Z,2.90
2023-04-03T04:12:07.973Z,3.23
2023-04-03T04:14:35.026Z,2.97
2023-04-03T04:17:03.512Z,3.17
2023-04-03T04:19:34.394Z,3.00
2023-04-03T04:22:07.273Z,3.63
2023-04-03T04:24:34.740Z,3.50
2023-04-03T04:27:01.621Z,3.07
2023-04-03T04:29:28.596Z,3.20
2023-04-03T04:31:58.277Z,3.30
2023-04-03T04:34:27.472Z,3.53
2023-04-03T04:36:54.793Z,3.73
2023-04-03T04:39:21.942Z,3.50
2023-04-03T04:41:51.603Z,3.57
2023-04-03T04:44:18.824Z,3.07
2023-04-03T04:46:48.510Z,3.60
2023-04-03T04:49:15.733Z,3.63
2023-04-03T04:51:52.001Z,3.70
2023-04-03T04:54:24.893Z,3.70
2023-04-03T04:56:52.102Z,3.50
2023-04-03T04:59:22.142Z,3.43
2023-04-03T05:01:49.394Z,4.33
2023-04-03T05:04:16.846Z,4.07
2023-04-03T05:06:43.980Z,3.47
2023-04-03T05:09:11.397Z,3.00
2023-04-03T05:11:38.441Z,3.30
2023-04-03T05:14:07.714Z,4.37
2023-04-03T05:16:35.053Z,4.00
2023-04-03T05:19:04.640Z,3.60
2023-04-03T05:21:33.502Z,3.50
2023-04-03T05:24:04.088Z,3.60
2023-04-03T05:26:33.033Z,3.70
2023-04-03T05:29:00.281Z,3.80
2023-04-03T05:31:30.747Z,3.63
2023-04-03T05:34:00.452Z,4.43
2023-04-03T05:36:27.786Z,4.23
2023-04-03T05:38:57.316Z,4.13
2023-04-03T05:41:25.051Z,4.13
2023-04-03T05:43:52.120Z,3.80
2023-04-03T05:46:24.082Z,3.80
2023-04-03T05:48:51.430Z,4.90
2023-04-03T05:51:39.921Z,3.83
2023-04-03T05:54:25.302Z,3.80
2023-04-03T05:56:55.740Z,3.83
2023-04-03T05:59:25.333Z,3.87
2023-04-03T06:01:52.340Z,3.70
2023-04-03T06:04:20.206Z,4.30
2023-04-03T06:06:58.704Z,4.63
2023-04-03T06:09:30.093Z,4.27
2023-04-03T06:12:00.775Z,4.33
2023-04-03T06:14:32.861Z,3.87
2023-04-03T06:17:00.705Z,3.53
2023-04-03T06:19:30.201Z,3.17
2023-04-03T06:21:57.615Z,3.63
2023-04-03T06:24:26.240Z,3.67
2023-04-03T06:26:56.514Z,3.53
2023-04-03T06:29:28.629Z,4.13
2023-04-03T06:31:55.895Z,4.00
2023-04-03T06:34:25.065Z,2.90
2023-04-03T06:36:51.963Z,2.50
2023-04-03T06:39:24.687Z,2.70
2023-04-03T06:41:54.862Z,2.33
2023-04-03T06:44:24.166Z,2.20
2023-04-03T06:46:52.745Z,2.50
2023-04-03T06:49:19.877Z,2.47
2023-04-03T06:51:47.079Z,2.50
2023-04-03T06:54:14.145Z,2.53
2023-04-03T06:56:43.457Z,2.00
2023-04-03T06:59:16.566Z,1.93
2023-04-03T07:01:43.770Z,2.27
2023-04-03T07:04:13.666Z,3.23
2023-04-03T07:06:45.697Z,2.97
2023-04-03T07:09:12.797Z,3.23
2023-04-03T07:11:42.541Z,2.80
2023-04-03T07:14:09.698Z,2.30
2023-04-03T07:16:38.241Z,2.63
2023-04-03T07:19:06.502Z,1.90
2023-04-03T07:21:33.650Z,2.20
2023-04-03T07:24:00.654Z,2.40
2023-04-03T07:26:27.946Z,1.90
2023-04-03T07:28:58.787Z,1.40
2023-04-03T07:31:30.650Z,1.70
2023-04-03T07:34:00.225Z,1.77
2023-04-03T07:36:30.630Z,1.97
2023-04-03T07:38:57.706Z,1.47
2023-04-03T07:41:24.646Z,1.80
2023-04-03T07:43:51.979Z,1.90
2023-04-03T07:46:19.019Z,1.60
2023-04-03T07:48:46.149Z,2.27
2023-04-03T07:51:14.003Z,2.40
2023-04-03T07:53:41.238Z,1.80
2023-04-03T07:56:09.370Z,2.03
2023-04-03T07:58:39.204Z,1.80
2023-04-03T08:01:07.222Z,1.80
2023-04-03T08:03:34.307Z,1.73
2023-04-03T08:06:15.768Z,1.40
2023-04-03T08:08:46.789Z,1.83
2023-04-03T08:11:13.887Z,1.70
2023-04-03T08:13:42.619Z,1.70
2023-04-03T08:16:17.924Z,2.07
2023-04-03T08:18:47.455Z,1.70
2023-04-03T08:21:16.921Z,5.60
2023-04-03T08:23:44.056Z,1.20
2023-04-03T08:26:21.311Z,1.67
2023-04-03T08:28:49.470Z,1.87
2023-04-03T08:31:22.259Z,1.50
2023-04-03T08:33:52.636Z,1.37
2023-04-03T08:36:29.226Z,1.07
2023-04-03T08:38:58.120Z,1.43
2023-04-03T08:41:44.797Z,1.63
2023-04-03T08:44:43.351Z,1.17
2023-04-03T08:47:34.929Z,1.50
2023-04-03T08:50:06.438Z,1.00
2023-04-03T08:52:38.508Z,1.47
2023-04-03T08:55:28.377Z,1.20
2023-04-03T08:58:27.556Z,2.30
2023-04-03T09:01:18.943Z,1.30
2023-04-03T09:03:46.218Z,1.20
2023-04-03T09:06:18.783Z,1.37
2023-04-03T09:09:03.191Z,1.33
2023-04-03T09:11:48.367Z,1.23
2023-04-03T09:14:40.833Z,1.87
2023-04-03T09:17:11.416Z,1.20
2023-04-03T09:20:03.396Z,0.97
2023-04-03T09:22:45.722Z,1.10
2023-04-03T09:25:24.299Z,1.40
2023-04-03T09:27:52.358Z,1.40
2023-04-03T09:30:27.648Z,1.43
2023-04-03T09:32:58.447Z,1.87
2023-04-03T09:35:44.665Z,1.30
2023-04-03T09:38:20.364Z,1.20
2023-04-03T09:41:05.060Z,1.43
2023-04-03T09:43:35.444Z,1.67
2023-04-03T09:46:31.396Z,1.20
2023-04-03T09:49:09.972Z,1.60
2023-04-03T09:51:41.891Z,1.57
2023-04-03T09:54:38.662Z,1.30
2023-04-03T09:57:14.801Z,1.37
2023-04-03T09:59:59.323Z,1.27
2023-04-03T10:02:39.311Z,1.47
2023-04-03T10:05:40.941Z,8.63
2023-04-03T10:08:17.529Z,1.30
2023-04-03T10:10:50.140Z,1.27
2023-04-03T10:13:25.602Z,1.00
2023-04-03T10:16:28.497Z,1.30
2023-04-03T10:19:14.744Z,1.20
2023-04-03T10:21:53.716Z,1.10
2023-04-03T10:24:37.817Z,1.67
2023-04-03T10:27:23.078Z,1.33
2023-04-03T10:30:06.108Z,1.20
2023-04-03T10:32:41.937Z,1.43
2023-04-03T10:35:33.803Z,1.60
2023-04-03T10:38:37.865Z,1.40
2023-04-03T10:42:16.062Z,1.67
2023-04-03T10:44:59.904Z,1.30
2023-04-03T10:47:47.930Z,1.30
2023-04-03T10:50:33.095Z,1.57
2023-04-03T10:53:20.910Z,1.40
2023-04-03T10:56:14.844Z,1.70
2023-04-03T10:58:46.377Z,1.30
2023-04-03T11:01:25.821Z,1.20
2023-04-03T11:04:02.104Z,1.50
2023-04-03T11:07:23.190Z,2.23
2023-04-03T11:09:58.288Z,1.27
2023-04-03T11:12:54.255Z,1.67
2023-04-03T11:15:23.719Z,1.33
2023-04-03T11:18:11.762Z,1.77
2023-04-03T11:20:48.633Z,1.40
2023-04-03T11:23:46.017Z,1.13
2023-04-03T11:26:26.585Z,1.43
2023-04-03T11:29:01.632Z,1.00
2023-04-03T11:31:59.285Z,1.77
2023-04-03T11:34:44.363Z,1.63
2023-04-03T11:37:39.627Z,1.77
2023-04-03T11:40:31.989Z,1.90
2023-04-03T11:43:23.770Z,1.67
2023-04-03T11:46:08.436Z,1.57
2023-04-03T11:48:35.647Z,1.27
2023-04-03T11:51:28.624Z,1.40
2023-04-03T11:53:57.792Z,1.30
2023-04-03T11:56:24.721Z,1.20
2023-04-03T11:59:26.731Z,1.40
2023-04-03T12:01:55.965Z,1.30
2023-04-03T12:04:26.592Z,1.33
2023-04-03T12:07:20.801Z,1.67
2023-04-03T12:09:47.652Z,1.20
2023-04-03T12:12:31.394Z,1.40
2023-04-03T12:15:20.610Z,1.70
2023-04-03T12:17:48.568Z,1.20
2023-04-03T12:20:50.236Z,1.40
2023-04-03T12:23:34.627Z,1.30
2023-04-03T12:26:22.809Z,1.20
2023-04-03T12:28:52.593Z,1.60
2023-04-03T12:31:27.597Z,1.80
2023-04-03T12:34:06.756Z,1.47
2023-04-03T12:36:43.081Z,1.47
2023-04-03T12:39:57.076Z,1.90
2023-04-03T12:43:15.803Z,1.43
2023-04-03T12:45:53.637Z,1.33
2023-04-03T12:48:27.289Z,1.83
2023-04-03T12:50:55.999Z,1.37
2023-04-03T12:53:31.399Z,1.53
2023-04-03T12:56:32.187Z,1.50
2023-04-03T12:59:21.624Z,1.50
2023-04-03T13:02:02.488Z,1.20
2023-04-03T13:04:32.412Z,2.23
2023-04-03T13:07:02.766Z,1.40
2023-04-03T13:09:33.569Z,1.30
2023-04-03T13:12:18.990Z,1.50
2023-04-03T13:15:14.723Z,1.70
2023-04-03T13:17:45.154Z,1.30
2023-04-03T13:20:23.651Z,1.50
2023-04-03T13:22:58.658Z,1.50
2023-04-03T13:25:31.596Z,1.40
2023-04-03T13:28:12.667Z,1.60
2023-04-03T13:30:56.984Z,1.30
2023-04-03T13:33:29.974Z,1.30
2023-04-03T13:36:05.403Z,1.27
2023-04-03T13:38:39.488Z,1.03
2023-04-03T13:41:27.431Z,1.30
2023-04-03T13:44:03.392Z,1.50
2023-04-03T13:46:37.944Z,1.27
2023-04-03T13:49:33.178Z,1.00
2023-04-03T13:52:07.998Z,1.20
2023-04-03T13:54:40.465Z,1.33
2023-04-03T13:57:16.964Z,1.67
2023-04-03T13:59:44.857Z,1.50
2023-04-03T14:02:33.669Z,1.57
2023-04-03T14:05:05.002Z,1.40
2023-04-03T14:07:35.344Z,1.80
2023-04-03T14:10:02.706Z,1.40
2023-04-03T14:12:40.238Z,1.33
2023-04-03T14:15:21.270Z,1.33
2023-04-03T14:17:48.439Z,1.03
2023-04-03T14:20:22.836Z,1.00
2023-04-03T14:22:50.160Z,1.33
2023-04-03T14:25:19.125Z,1.30
2023-04-03T14:27:50.034Z,1.47
2023-04-03T14:30:24.366Z,1.30
2023-04-03T14:32:51.546Z,1.30
2023-04-03T14:35:22.124Z,1.47
2023-04-03T14:37:54.768Z,1.10
2023-04-03T14:40:29.187Z,1.10
2023-04-03T14:43:00.800Z,1.33
2023-04-03T14:45:27.840Z,1.60
2023-04-03T14:47:57.759Z,1.40
2023-04-03T14:50:30.216Z,1.30
2023-04-03T14:53:00.166Z,1.03
2023-04-03T14:55:28.670Z,0.90
2023-04-03T14:57:58.432Z,1.03
2023-04-03T15:00:27.854Z,1.20
2023-04-03T15:02:55.423Z,1.20
2023-04-03T15:05:25.315Z,1.23
2023-04-03T15:07:57.300Z,1.17
2023-04-03T15:10:32.382Z,1.30
2023-04-03T15:12:59.524Z,1.63
2023-04-03T15:15:31.101Z,1.07
2023-04-03T15:17:59.348Z,1.03
2023-04-03T15:20:34.346Z,1.00
2023-04-03T15:23:02.445Z,1.40
2023-04-03T15:25:32.627Z,1.20
2023-04-03T15:28:02.780Z,1.10
2023-04-03T15:30:29.864Z,1.13
2023-04-03T15:32:59.449Z,1.20
2023-04-03T15:35:30.357Z,0.87
2023-04-03T15:37:57.497Z,1.13
2023-04-03T15:40:24.569Z,1.10
2023-04-03T15:42:53.245Z,1.20
2023-04-03T15:45:22.362Z,1.10
2023-04-03T15:47:49.771Z,0.90
2023-04-03T15:50:16.854Z,1.07
2023-04-03T15:52:44.439Z,1.10
2023-04-03T15:55:11.442Z,0.90
2023-04-03T16:00:11.640Z,1.20
2023-04-03T16:02:38.908Z,1.03
2023-04-03T16:05:06.850Z,1.00
2023-04-03T16:07:36.506Z,1.07
2023-04-03T16:10:07.680Z,1.57
2023-04-03T16:12:34.839Z,1.10
2023-04-03T16:15:02.097Z,1.23
2023-04-03T16:17:29.575Z,1.60
2023-04-03T16:19:56.994Z,1.07
2023-04-03T16:22:30.924Z,1.23
2023-04-03T16:24:58.195Z,0.93
2023-04-03T16:27:28.677Z,1.43
2023-04-03T16:29:58.713Z,1.00
2023-04-03T16:32:30.919Z,1.30
2023-04-03T16:34:59.319Z,1.80
2023-04-03T16:37:27.244Z,1.37
2023-04-03T16:39:55.935Z,1.20
2023-04-03T16:42:22.941Z,1.30
2023-04-03T16:44:49.914Z,1.10
2023-04-03T16:47:20.217Z,1.20
2023-04-03T16:49:54.133Z,1.10
2023-04-03T16:52:23.893Z,1.27
2023-04-03T16:54:52.704Z,1.83
2023-04-03T16:57:21.526Z,0.90
2023-04-03T16:59:51.599Z,1.47
2023-04-03T17:02:22.646Z,2.63
2023-04-03T17:04:52.859Z,1.10
2023-04-03T17:07:24.464Z,1.50
2023-04-03T17:09:54.937Z,1.30
2023-04-03T17:12:27.118Z,1.40
2023-04-03T17:14:57.200Z,1.30
2023-04-03T17:17:29.526Z,1.20
2023-04-03T17:19:57.175Z,1.50
2023-04-03T17:22:27.097Z,1.20
2023-04-03T17:24:54.119Z,1.47
2023-04-03T17:27:21.325Z,0.93
2023-04-03T17:29:50.586Z,1.57
2023-04-03T17:32:17.913Z,1.30
2023-04-03T17:34:48.356Z,1.47
2023-04-03T17:37:18.086Z,1.60
2023-04-03T17:39:46.894Z,1.33
2023-04-03T17:42:13.941Z,1.50
2023-04-03T17:44:43.257Z,1.47
2023-04-03T17:47:10.736Z,1.67
2023-04-03T17:49:40.261Z,1.67
2023-04-03T17:52:07.213Z,2.00
2023-04-03T17:54:34.641Z,1.30
2023-04-03T17:57:04.740Z,1.80
2023-04-03T17:59:34.731Z,1.70
2023-04-03T18:02:04.201Z,1.77
2023-04-03T18:04:33.229Z,1.30
2023-04-03T18:07:02.097Z,1.30
2023-04-03T18:09:36.441Z,2.10
2023-04-03T18:12:07.340Z,1.67
2023-04-03T18:14:36.542Z,1.63
2023-04-03T18:17:03.944Z,1.70
2023-04-03T18:19:30.976Z,1.70
2023-04-03T18:22:06.699Z,1.90
2023-04-03T18:24:37.152Z,1.87
2023-04-03T18:27:18.807Z,1.87
2023-04-03T18:29:53.101Z,2.00
2023-04-03T18:32:24.263Z,1.93
2023-04-03T18:34:51.550Z,1.60
2023-04-03T18:37:19.121Z,1.40
2023-04-03T18:39:48.273Z,2.00
2023-04-03T18:42:20.231Z,2.23
2023-04-03T18:44:55.155Z,1.93
2023-04-03T18:47:22.216Z,2.00
2023-04-03T18:49:49.293Z,2.27
2023-04-03T18:52:16.274Z,2.20
2023-04-03T18:54:43.362Z,2.03
2023-04-03T18:57:12.848Z,2.13
2023-04-03T18:59:44.396Z,1.90
2023-04-03T19:02:14.225Z,1.67
2023-04-03T19:04:44.185Z,3.13
2023-04-03T19:07:11.546Z,2.13
2023-04-03T19:09:40.937Z,2.20
2023-04-03T19:12:08.301Z,1.97
2023-04-03T19:14:35.572Z,2.03
2023-04-03T19:17:04.165Z,2.47
2023-04-03T19:19:33.489Z,2.13
2023-04-03T19:22:00.699Z,2.10
2023-04-03T19:24:27.999Z,1.97
2023-04-03T19:26:57.488Z,1.90
2023-04-03T19:29:27.466Z,2.20
2023-04-03T19:31:54.729Z,2.20
2023-04-03T19:34:22.003Z,2.00
2023-04-03T19:36:52.276Z,1.73
2023-04-03T19:39:19.313Z,2.13
2023-04-03T19:41:47.088Z,1.97
2023-04-03T19:44:16.560Z,2.07
2023-04-03T19:46:51.353Z,1.90
2023-04-03T19:49:20.020Z,2.30
2023-04-03T19:51:49.416Z,1.73
2023-04-03T19:54:19.600Z,1.80
2023-04-03T19:56:49.084Z,1.60
2023-04-03T19:59:19.089Z,1.57
2023-04-03T20:01:46.446Z,1.73
2023-04-03T20:04:16.571Z,2.60
2023-04-03T20:06:43.583Z,2.67
2023-04-03T20:09:10.974Z,2.23
2023-04-03T20:11:40.377Z,2.00
2023-04-03T20:14:07.734Z,2.57
2023-04-03T20:16:38.067Z,1.93
2023-04-03T20:19:07.849Z,2.67
2023-04-03T20:21:35.080Z,2.90
2023-04-03T20:24:04.401Z,2.40
2023-04-03T20:26:42.256Z,3.77
2023-04-03T20:29:12.183Z,2.00
2023-04-03T20:31:42.233Z,2.20
2023-04-03T20:34:11.930Z,2.83
2023-04-03T20:36:39.111Z,2.80
2023-04-03T20:39:06.407Z,2.40
2023-04-03T20:41:37.875Z,2.23
2023-04-03T20:44:05.734Z,2.50
2023-04-03T20:46:48.827Z,2.67
2023-04-03T20:49:23.248Z,2.97
2023-04-03T20:51:53.010Z,2.73
2023-04-03T20:54:20.481Z,2.80
2023-04-03T20:56:49.951Z,2.80
2023-04-03T20:59:18.870Z,3.10
2023-04-03T21:01:47.573Z,2.70
2023-04-03T21:04:30.406Z,2.40
2023-04-03T21:07:54.563Z,2.53
2023-04-03T21:11:23.564Z,2.73
2023-04-03T21:14:48.592Z,2.90
2023-04-03T21:17:15.824Z,2.97
2023-04-03T21:19:51.481Z,3.00
2023-04-03T21:22:20.408Z,2.40
2023-04-03T21:24:48.427Z,3.10
2023-04-03T21:27:16.029Z,2.27
2023-04-03T21:29:46.348Z,2.20
2023-04-03T21:32:15.789Z,2.47
2023-04-03T21:34:42.919Z,1.77
2023-04-03T21:37:11.925Z,1.93
2023-04-03T21:39:38.963Z,2.40
2023-04-03T21:42:07.458Z,1.80
2023-04-03T21:44:37.183Z,2.20
2023-04-03T21:47:05.066Z,2.17
2023-04-03T21:49:34.360Z,1.73
2023-04-03T21:52:03.636Z,1.90
2023-04-03T21:54:30.705Z,1.97
2023-04-03T21:56:57.742Z,1.60
2023-04-03T21:59:27.389Z,1.70
2023-04-03T22:01:54.547Z,2.03
2023-04-03T22:04:26.706Z,1.80
2023-04-03T22:06:53.699Z,1.40
2023-04-03T22:09:20.816Z,1.67
2023-04-03T22:11:52.627Z,1.73
2023-04-03T22:14:20.367Z,1.90
2023-04-03T22:16:47.632Z,1.80
2023-04-03T22:19:14.823Z,1.97
2023-04-03T22:21:43.859Z,1.37
2023-04-03T22:24:10.798Z,2.07
2023-04-03T22:26:38.905Z,1.43
2023-04-03T22:29:06.127Z,1.70
2023-04-03T22:31:33.354Z,2.10
2023-04-03T22:34:04.243Z,1.40
2023-04-03T22:36:31.302Z,1.37
2023-04-03T22:38:58.757Z,1.10
2023-04-03T22:41:28.084Z,1.73
2023-04-03T22:43:59.107Z,1.40
2023-04-03T22:46:29.051Z,1.60
2023-04-03T22:48:56.152Z,1.27
2023-04-03T22:51:25.493Z,1.80
2023-04-03T22:53:52.473Z,1.33
2023-04-03T22:56:23.944Z,2.07
2023-04-03T22:58:52.872Z,1.50
2023-04-03T23:01:20.355Z,1.23
2023-04-03T23:03:47.351Z,1.60
2023-04-03T23:06:16.874Z,1.33
2023-04-03T23:08:44.829Z,1.90
2023-04-03T23:11:14.274Z,1.77
2023-04-03T23:13:43.594Z,1.30
2023-04-03T23:16:13.248Z,1.40
2023-04-03T23:18:43.885Z,1.80
2023-04-03T23:21:11.293Z,1.60
2023-04-03T23:23:40.683Z,1.53
2023-04-03T23:26:09.653Z,1.37
2023-04-03T23:28:37.070Z,1.40
2023-04-03T23:31:07.281Z,1.57
2023-04-03T23:33:34.677Z,1.57
2023-04-03T23:36:10.274Z,1.50
2023-04-03T23:38:39.811Z,1.70
2023-04-03T23:41:09.042Z,1.77
2023-04-03T23:43:36.176Z,1.93
2023-04-03T23:46:03.423Z,1.30
2023-04-03T23:48:33.113Z,1.90
2023-04-03T23:51:00.016Z,1.73
2023-04-03T23:53:29.649Z,1.53
2023-04-03T23:55:56.737Z,1.77
2023-04-03T23:58:23.798Z,1.43
